sensor_id;sensor_type;location;lat;lon;timestamp;pressure;altitude;pressure_sealevel;temperature;humidity
4836;BME280;66719;51.226;6.902;2023-03-14T00:00:18;98326.16;;;10.40;100.00
4836;BME280;66719;51.226;6.902;2023-03-14T00:02:45;98315.69;;;10.40;100.00
4836;BME280;66719;51.226;6.902;2023-03-14T00:05:12;98306.16;;;10.39;100.00
4836;BME280;66719;51.226;6.902;2023-03-14T00:07:39;98299.91;;;10.42;100.00
4836;BME280;66719;51.226;6.902;2023-03-14T00:10:11;98297.97;;;10.45;100.00
4836;BME280;66719;51.226;6.902;2023-03-14T00:12:39;98287.59;;;10.44;100.00
4836;BME280;66719;51.226;6.902;2023-03-14T00:15:06;98273.69;;;10.43;100.00
4836;BME280;66719;51.226;6.902;2023-03-14T00:17:35;98270.28;;;10.41;100.00
4836;BME280;66719;51.226;6.902;2023-03-14T00:20:03;98274.78;;;10.39;100.00
4836;BME280;66719;51.226;6.902;2023-03-14T00:22:31;98293.09;;;10.39;100.00
4836;BME280;66719;51.226;6.902;2023-03-14T00:24:58;98297.38;;;10.40;100.00
4836;BME280;66719;51.226;6.902;2023-03-14T00:27:24;98312.84;;;10.45;100.00
4836;BME280;66719;51.226;6.902;2023-03-14T00:29:51;98323.13;;;10.48;100.00
4836;BME280;66719;51.226;6.902;2023-03-14T00:32:17;98327.50;;;10.47;100.00
4836;BME280;66719;51.226;6.902;2023-03-14T00:34:44;98333.31;;;10.53;100.00
4836;BME280;66719;51.226;6.902;2023-03-14T00:37:10;98329.88;;;10.52;100.00
4836;BME280;66719;51.226;6.902;2023-03-14T00:39:37;98332.41;;;10.54;100.00
4836;BME280;66719;51.226;6.902;2023-03-14T00:42:03;98346.22;;;10.56;100.00
4836;BME280;66719;51.226;6.902;2023-03-14T00:44:30;98333.88;;;10.58;100.00
4836;BME280;66719;51.226;6.902;2023-03-14T00:46:58;98368.09;;;10.55;100.00
4836;BME280;66719;51.226;6.902;2023-03-14T00:49:24;98384.41;;;10.44;100.00
4836;BME280;66719;51.226;6.902;2023-03-14T00:51:51;98376.22;;;10.34;100.00
4836;BME280;66719;51.226;6.902;2023-03-14T00:54:21;98380.41;;;10.21;100.00
4836;BME280;66719;51.226;6.902;2023-03-14T00:56:47;98378.13;;;10.15;100.00
4836;BME280;66719;51.226;6.902;2023-03-14T00:59:15;98377.53;;;10.10;100.00
4836;BME280;66719;51.226;6.902;2023-03-14T01:01:42;98365.81;;;10.01;100.00
4836;BME280;66719;51.226;6.902;2023-03-14T01:04:08;98367.16;;;9.93;100.00
4836;BME280;66719;51.226;6.902;2023-03-14T01:06:35;98350.31;;;9.82;100.00
4836;BME280;66719;51.226;6.902;2023-03-14T01:09:01;98346.56;;;9.71;100.00
4836;BME280;66719;51.226;6.902;2023-03-14T01:11:31;98340.91;;;9.62;100.00
4836;BME280;66719;51.226;6.902;2023-03-14T01:13:58;98334.00;;;9.61;100.00
4836;BME280;66719;51.226;6.902;2023-03-14T01:16:27;98339.31;;;9.60;100.00
4836;BME280;66719;51.226;6.902;2023-03-14T01:18:54;98338.69;;;9.55;100.00
4836;BME280;66719;51.226;6.902;2023-03-14T01:21:26;98344.00;;;9.53;100.00
4836;BME280;66719;51.226;6.902;2023-03-14T01:23:55;98336.34;;;9.50;100.00
4836;BME280;66719;51.226;6.902;2023-03-14T01:26:25;98336.44;;;9.49;100.00
4836;BME280;66719;51.226;6.902;2023-03-14T01:28:53;98336.56;;;9.46;100.00
4836;BME280;66719;51.226;6.902;2023-03-14T01:31:20;98326.22;;;9.44;100.00
4836;BME280;66719;51.226;6.902;2023-03-14T01:33:46;98320.25;;;9.42;100.00
4836;BME280;66719;51.226;6.902;2023-03-14T01:36:13;98315.00;;;9.42;100.00
4836;BME280;66719;51.226;6.902;2023-03-14T01:38:40;98303.72;;;9.42;100.00
4836;BME280;66719;51.226;6.902;2023-03-14T01:41:09;98296.72;;;9.42;100.00
4836;BME280;66719;51.226;6.902;2023-03-14T01:43:37;98301.03;;;9.43;100.00
4836;BME280;66719;51.226;6.902;2023-03-14T01:48:38;98308.09;;;9.41;100.00
4836;BME280;66719;51.226;6.902;2023-03-14T01:51:10;98310.84;;;9.38;100.00
4836;BME280;66719;51.226;6.902;2023-03-14T01:53:39;98309.19;;;9.37;100.00
4836;BME280;66719;51.226;6.902;2023-03-14T01:56:10;98310.81;;;9.40;100.00
4836;BME280;66719;51.226;6.902;2023-03-14T01:58:39;98307.19;;;9.42;100.00
4836;BME280;66719;51.226;6.902;2023-03-14T02:01:08;98295.88;;;9.42;100.00
4836;BME280;66719;51.226;6.902;2023-03-14T02:03:44;98287.22;;;9.41;100.00
4836;BME280;66719;51.226;6.902;2023-03-14T02:06:13;98290.75;;;9.40;100.00
4836;BME280;66719;51.226;6.902;2023-03-14T02:08:40;98301.34;;;9.37;100.00
4836;BME280;66719;51.226;6.902;2023-03-14T02:11:07;98289.22;;;9.36;100.00
4836;BME280;66719;51.226;6.902;2023-03-14T02:13:34;98282.13;;;9.38;100.00
4836;BME280;66719;51.226;6.902;2023-03-14T02:16:01;98291.69;;;9.39;100.00
4836;BME280;66719;51.226;6.902;2023-03-14T02:18:27;98293.47;;;9.39;100.00
4836;BME280;66719;51.226;6.902;2023-03-14T02:21:05;98296.06;;;9.39;100.00
4836;BME280;66719;51.226;6.902;2023-03-14T02:24:09;98284.69;;;9.40;100.00
4836;BME280;66719;51.226;6.902;2023-03-14T02:26:44;98283.00;;;9.39;100.00
4836;BME280;66719;51.226;6.902;2023-03-14T02:29:11;98288.13;;;9.40;100.00
4836;BME280;66719;51.226;6.902;2023-03-14T02:31:38;98290.84;;;9.39;100.00
4836;BME280;66719;51.226;6.902;2023-03-14T02:34:05;98297.66;;;9.41;100.00
4836;BME280;66719;51.226;6.902;2023-03-14T02:36:32;98296.81;;;9.41;100.00
4836;BME280;66719;51.226;6.902;2023-03-14T02:39:14;98285.69;;;9.37;100.00
4836;BME280;66719;51.226;6.902;2023-03-14T02:41:42;98296.13;;;9.37;100.00
4836;BME280;66719;51.226;6.902;2023-03-14T02:44:11;98283.16;;;9.35;100.00
4836;BME280;66719;51.226;6.902;2023-03-14T02:46:38;98279.59;;;9.37;100.00
4836;BME280;66719;51.226;6.902;2023-03-14T02:49:07;98279.59;;;9.37;100.00
4836;BME280;66719;51.226;6.902;2023-03-14T02:51:35;98277.84;;;9.37;100.00
4836;BME280;66719;51.226;6.902;2023-03-14T02:54:02;98282.06;;;9.40;100.00
4836;BME280;66719;51.226;6.902;2023-03-14T02:56:28;98281.16;;;9.41;100.00
4836;BME280;66719;51.226;6.902;2023-03-14T02:58:55;98276.91;;;9.38;100.00
4836;BME280;66719;51.226;6.902;2023-03-14T03:01:24;98272.56;;;9.39;100.00
4836;BME280;66719;51.226;6.902;2023-03-14T03:03:51;98271.63;;;9.40;100.00
4836;BME280;66719;51.226;6.902;2023-03-14T03:06:17;98267.34;;;9.39;100.00
4836;BME280;66719;51.226;6.902;2023-03-14T03:08:44;98255.88;;;9.41;100.00
4836;BME280;66719;51.226;6.902;2023-03-14T03:11:10;98253.34;;;9.40;100.00
4836;BME280;66719;51.226;6.902;2023-03-14T03:13:37;98249.06;;;9.39;100.00
4836;BME280;66719;51.226;6.902;2023-03-14T03:16:03;98250.78;;;9.38;100.00
4836;BME280;66719;51.226;6.902;2023-03-14T03:18:30;98249.91;;;9.39;100.00
4836;BME280;66719;51.226;6.902;2023-03-14T03:21:00;98247.13;;;9.42;100.00
4836;BME280;66719;51.226;6.902;2023-03-14T03:23:27;98242.72;;;9.43;100.00
4836;BME280;66719;51.226;6.902;2023-03-14T03:25:53;98242.72;;;9.43;100.00
4836;BME280;66719;51.226;6.902;2023-03-14T03:28:20;98243.66;;;9.42;100.00
4836;BME280;66719;51.226;6.902;2023-03-14T03:30:46;98246.28;;;9.42;100.00
4836;BME280;66719;51.226;6.902;2023-03-14T03:33:13;98250.75;;;9.40;100.00
4836;BME280;66719;51.226;6.902;2023-03-14T03:35:48;98264.78;;;9.37;100.00
4836;BME280;66719;51.226;6.902;2023-03-14T03:38:15;98251.91;;;9.34;100.00
4836;BME280;66719;51.226;6.902;2023-03-14T03:40:42;98267.81;;;9.29;100.00
4836;BME280;66719;51.226;6.902;2023-03-14T03:43:09;98253.25;;;9.25;100.00
4836;BME280;66719;51.226;6.902;2023-03-14T03:45:36;98257.63;;;9.25;100.00
4836;BME280;66719;51.226;6.902;2023-03-14T03:48:02;98255.09;;;9.23;100.00
4836;BME280;66719;51.226;6.902;2023-03-14T03:50:29;98259.72;;;9.18;100.00
4836;BME280;66719;51.226;6.902;2023-03-14T03:52:55;98250.19;;;9.17;100.00
4836;BME280;66719;51.226;6.902;2023-03-14T03:55:22;98251.78;;;9.20;100.00
4836;BME280;66719;51.226;6.902;2023-03-14T03:57:48;98244.75;;;9.22;100.00
4836;BME280;66719;51.226;6.902;2023-03-14T04:00:15;98237.81;;;9.21;100.00
4836;BME280;66719;51.226;6.902;2023-03-14T04:02:41;98227.53;;;9.18;100.00
4836;BME280;66719;51.226;6.902;2023-03-14T04:05:08;98223.16;;;9.18;100.00
4836;BME280;66719;51.226;6.902;2023-03-14T04:07:35;98221.47;;;9.17;100.00
4836;BME280;66719;51.226;6.902;2023-03-14T04:10:01;98211.88;;;9.18;100.00
4836;BME280;66719;51.226;6.902;2023-03-14T04:12:28;98213.72;;;9.16;100.00
4836;BME280;66719;51.226;6.902;2023-03-14T04:14:54;98217.19;;;9.16;100.00
4836;BME280;66719;51.226;6.902;2023-03-14T04:17:21;98210.38;;;9.14;100.00
4836;BME280;66719;51.226;6.902;2023-03-14T04:19:48;98207.84;;;9.12;100.00
4836;BME280;66719;51.226;6.902;2023-03-14T04:22:17;98206.06;;;9.13;100.00
4836;BME280;66719;51.226;6.902;2023-03-14T04:24:43;98206.91;;;9.13;100.00
4836;BME280;66719;51.226;6.902;2023-03-14T04:27:10;98204.31;;;9.13;100.00
4836;BME280;66719;51.226;6.902;2023-03-14T04:29:36;98194.94;;;9.09;100.00
4836;BME280;66719;51.226;6.902;2023-03-14T04:32:03;98193.25;;;9.08;100.00
4836;BME280;66719;51.226;6.902;2023-03-14T04:34:30;98179.59;;;9.03;100.00
4836;BME280;66719;51.226;6.902;2023-03-14T04:36:56;98181.47;;;9.01;100.00
4836;BME280;66719;51.226;6.902;2023-03-14T04:39:22;98175.50;;;8.99;100.00
4836;BME280;66719;51.226;6.902;2023-03-14T04:41:49;98173.81;;;8.98;100.00
4836;BME280;66719;51.226;6.902;2023-03-14T04:44:15;98175.56;;;8.97;100.00
4836;BME280;66719;51.226;6.902;2023-03-14T04:46:42;98170.28;;;8.99;100.00
4836;BME280;66719;51.226;6.902;2023-03-14T04:49:08;98163.38;;;8.98;100.00
4836;BME280;66719;51.226;6.902;2023-03-14T04:51:35;98171.94;;;9.00;100.00
4836;BME280;66719;51.226;6.902;2023-03-14T04:54:01;98166.81;;;8.98;100.00
4836;BME280;66719;51.226;6.902;2023-03-14T04:56:28;98165.88;;;8.99;100.00
4836;BME280;66719;51.226;6.902;2023-03-14T04:58:54;98165.13;;;8.97;100.00
4836;BME280;66719;51.226;6.902;2023-03-14T05:01:21;98168.50;;;8.99;100.00
4836;BME280;66719;51.226;6.902;2023-03-14T05:03:48;98163.38;;;8.98;100.00
4836;BME280;66719;51.226;6.902;2023-03-14T05:06:14;98156.47;;;8.97;100.00
4836;BME280;66719;51.226;6.902;2023-03-14T05:08:41;98150.41;;;8.96;100.00
4836;BME280;66719;51.226;6.902;2023-03-14T05:11:10;98146.97;;;8.96;100.00
4836;BME280;66719;51.226;6.902;2023-03-14T05:13:36;98143.56;;;8.94;100.00
4836;BME280;66719;51.226;6.902;2023-03-14T05:16:07;98142.66;;;8.95;100.00
4836;BME280;66719;51.226;6.902;2023-03-14T05:18:34;98126.91;;;8.96;100.00
4836;BME280;66719;51.226;6.902;2023-03-14T05:21:00;98132.97;;;8.97;100.00
4836;BME280;66719;51.226;6.902;2023-03-14T05:23:27;98127.75;;;8.97;100.00
4836;BME280;66719;51.226;6.902;2023-03-14T05:25:54;98127.75;;;8.97;100.00
4836;BME280;66719;51.226;6.902;2023-03-14T05:28:20;98134.75;;;8.96;100.00
4836;BME280;66719;51.226;6.902;2023-03-14T05:30:47;98133.06;;;8.95;100.00
4836;BME280;66719;51.226;6.902;2023-03-14T05:33:13;98132.97;;;8.97;100.00
4836;BME280;66719;51.226;6.902;2023-03-14T05:35:41;98126.91;;;8.96;100.00
4836;BME280;66719;51.226;6.902;2023-03-14T05:38:08;98120.69;;;8.99;100.00
4836;BME280;66719;51.226;6.902;2023-03-14T05:40:35;98125.72;;;9.02;100.00
4836;BME280;66719;51.226;6.902;2023-03-14T05:43:05;98118.75;;;9.02;100.00
4836;BME280;66719;51.226;6.902;2023-03-14T05:45:34;98114.34;;;9.03;100.00
4836;BME280;66719;51.226;6.902;2023-03-14T05:48:01;98116.13;;;9.02;100.00
4836;BME280;66719;51.226;6.902;2023-03-14T05:50:28;98120.44;;;9.03;100.00
4836;BME280;66719;51.226;6.902;2023-03-14T05:52:54;98109.09;;;9.04;100.00
4836;BME280;66719;51.226;6.902;2023-03-14T05:55:21;98114.22;;;9.06;100.00
4836;BME280;66719;51.226;6.902;2023-03-14T05:57:47;98121.09;;;9.07;100.00
4836;BME280;66719;51.226;6.902;2023-03-14T06:00:14;98111.59;;;9.06;100.00
4836;BME280;66719;51.226;6.902;2023-03-14T06:02:41;98108.06;;;9.07;100.00
4836;BME280;66719;51.226;6.902;2023-03-14T06:05:07;98108.06;;;9.07;100.00
4836;BME280;66719;51.226;6.902;2023-03-14T06:07:34;98110.75;;;9.05;100.00
4836;BME280;66719;51.226;6.902;2023-03-14T06:10:00;98106.28;;;9.07;100.00
4836;BME280;66719;51.226;6.902;2023-03-14T06:12:27;98123.63;;;9.09;100.00
4836;BME280;66719;51.226;6.902;2023-03-14T06:14:54;98114.88;;;9.10;100.00
4836;BME280;66719;51.226;6.902;2023-03-14T06:17:21;98111.34;;;9.11;100.00
4836;BME280;66719;51.226;6.902;2023-03-14T06:19:47;98117.38;;;9.11;100.00
4836;BME280;66719;51.226;6.902;2023-03-14T06:22:14;98117.25;;;9.14;100.00
4836;BME280;66719;51.226;6.902;2023-03-14T06:24:40;98114.53;;;9.16;100.00
4836;BME280;66719;51.226;6.902;2023-03-14T06:27:07;98115.38;;;9.16;100.00
4836;BME280;66719;51.226;6.902;2023-03-14T06:29:33;98115.38;;;9.16;100.00
4836;BME280;66719;51.226;6.902;2023-03-14T06:32:00;98115.38;;;9.16;100.00
4836;BME280;66719;51.226;6.902;2023-03-14T06:34:26;98119.66;;;9.17;100.00
4836;BME280;66719;51.226;6.902;2023-03-14T06:36:53;98121.25;;;9.20;100.00
4836;BME280;66719;51.226;6.902;2023-03-14T06:39:19;98117.06;;;9.17;100.00
4836;BME280;66719;51.226;6.902;2023-03-14T06:41:46;98115.19;;;9.19;100.00
4836;BME280;66719;51.226;6.902;2023-03-14T06:44:13;98115.06;;;9.22;100.00
4836;BME280;66719;51.226;6.902;2023-03-14T06:46:39;98121.13;;;9.23;100.00
4836;BME280;66719;51.226;6.902;2023-03-14T06:49:06;98120.28;;;9.22;100.00
4836;BME280;66719;51.226;6.902;2023-03-14T06:51:32;98127.25;;;9.22;100.00
4836;BME280;66719;51.226;6.902;2023-03-14T06:53:59;98119.44;;;9.22;100.00
4836;BME280;66719;51.226;6.902;2023-03-14T06:56:25;98124.47;;;9.25;100.00
4836;BME280;66719;51.226;6.902;2023-03-14T06:58:52;98126.06;;;9.27;100.00
4836;BME280;66719;51.226;6.902;2023-03-14T07:01:26;98128.44;;;9.32;100.00
4836;BME280;66719;51.226;6.902;2023-03-14T07:03:53;98129.28;;;9.32;100.00
4836;BME280;66719;51.226;6.902;2023-03-14T07:06:20;98131.88;;;9.32;100.00
4836;BME280;66719;51.226;6.902;2023-03-14T07:08:47;98138.78;;;9.33;100.00
4836;BME280;66719;51.226;6.902;2023-03-14T07:11:14;98121.25;;;9.35;100.00
4836;BME280;66719;51.226;6.902;2023-03-14T07:13:40;98130.78;;;9.37;100.00
4836;BME280;66719;51.226;6.902;2023-03-14T07:16:07;98133.38;;;9.37;100.00
4836;BME280;66719;51.226;6.902;2023-03-14T07:18:34;98134.06;;;9.40;100.00
4836;BME280;66719;51.226;6.902;2023-03-14T07:21:01;98132.22;;;9.42;100.00
4836;BME280;66719;51.226;6.902;2023-03-14T07:23:27;98144.34;;;9.43;100.00
4836;BME280;66719;51.226;6.902;2023-03-14T07:25:54;98145.16;;;9.44;100.00
4836;BME280;66719;51.226;6.902;2023-03-14T07:28:20;98149.56;;;9.43;100.00
4836;BME280;66719;51.226;6.902;2023-03-14T07:30:47;98147.59;;;9.47;100.00
4836;BME280;66719;51.226;6.902;2023-03-14T07:33:14;98148.38;;;9.49;100.00
4836;BME280;66719;51.226;6.902;2023-03-14T07:35:41;98157.91;;;9.50;100.00
4836;BME280;66719;51.226;6.902;2023-03-14T07:38:08;98153.25;;;9.55;100.00
4836;BME280;66719;51.226;6.902;2023-03-14T07:40:34;98151.97;;;9.62;100.00
4836;BME280;66719;51.226;6.902;2023-03-14T07:43:01;98156.09;;;9.66;100.00
4836;BME280;66719;51.226;6.902;2023-03-14T07:45:27;98149.66;;;9.72;100.00
4836;BME280;66719;51.226;6.902;2023-03-14T07:47:54;98146.63;;;9.79;100.00
4836;BME280;66719;51.226;6.902;2023-03-14T07:50:25;98146.53;;;9.81;100.00
4836;BME280;66719;51.226;6.902;2023-03-14T07:52:52;98155.81;;;9.86;100.00
4836;BME280;66719;51.226;6.902;2023-03-14T07:55:18;98159.53;;;9.82;100.00
4836;BME280;66719;51.226;6.902;2023-03-14T07:57:45;98161.22;;;9.83;100.00
4836;BME280;66719;51.226;6.902;2023-03-14T08:00:12;98171.81;;;9.80;100.00
4836;BME280;66719;51.226;6.902;2023-03-14T08:02:41;98184.88;;;9.80;100.00
4836;BME280;66719;51.226;6.902;2023-03-14T08:05:08;98184.88;;;9.80;100.00
4836;BME280;66719;51.226;6.902;2023-03-14T08:07:35;98175.28;;;9.81;100.00
4836;BME280;66719;51.226;6.902;2023-03-14T08:10:03;98174.00;;;9.88;100.00
4836;BME280;66719;51.226;6.902;2023-03-14T08:12:29;98179.72;;;9.95;100.00
4836;BME280;66719;51.226;6.902;2023-03-14T08:14:56;98166.41;;;9.99;100.00
4836;BME280;66719;51.226;6.902;2023-03-14T08:17:22;98173.31;;;10.00;100.00
4836;BME280;66719;51.226;6.902;2023-03-14T08:19:49;98179.09;;;10.05;100.00
4836;BME280;66719;51.226;6.902;2023-03-14T08:22:15;98174.38;;;10.12;100.00
4836;BME280;66719;51.226;6.902;2023-03-14T08:24:45;98174.03;;;10.18;100.00
4836;BME280;66719;51.226;6.902;2023-03-14T08:27:11;98178.06;;;10.24;100.00
4836;BME280;66719;51.226;6.902;2023-03-14T08:29:38;98181.44;;;10.26;100.00
4836;BME280;66719;51.226;6.902;2023-03-14T08:32:06;98178.06;;;10.24;100.00
4836;BME280;66719;51.226;6.902;2023-03-14T08:34:33;98179.06;;;10.21;100.00
4836;BME280;66719;51.226;6.902;2023-03-14T08:37:00;98180.78;;;10.22;100.00
4836;BME280;66719;51.226;6.902;2023-03-14T08:39:29;98179.06;;;10.21;100.00
4836;BME280;66719;51.226;6.902;2023-03-14T08:41:56;98179.16;;;10.19;100.00
4836;BME280;66719;51.226;6.902;2023-03-14T08:44:22;98175.69;;;10.19;100.00
4836;BME280;66719;51.226;6.902;2023-03-14T08:46:49;98178.31;;;10.19;100.00
4836;BME280;66719;51.226;6.902;2023-03-14T08:49:15;98178.06;;;10.24;100.00
4836;BME280;66719;51.226;6.902;2023-03-14T08:51:42;98186.75;;;10.24;100.00
4836;BME280;66719;51.226;6.902;2023-03-14T08:54:11;98184.22;;;10.23;100.00
4836;BME280;66719;51.226;6.902;2023-03-14T08:56:38;98187.84;;;10.20;100.00
4836;BME280;66719;51.226;6.902;2023-03-14T08:59:05;98186.31;;;10.16;100.00
4836;BME280;66719;51.226;6.902;2023-03-14T09:01:31;98191.53;;;10.16;100.00
4836;BME280;66719;51.226;6.902;2023-03-14T09:03:58;98193.41;;;10.14;100.00
4836;BME280;66719;51.226;6.902;2023-03-14T09:06:25;98191.91;;;10.10;100.00
4836;BME280;66719;51.226;6.902;2023-03-14T09:08:51;98205.44;;;10.02;100.00
4836;BME280;66719;51.226;6.902;2023-03-14T09:11:18;98214.31;;;10.00;100.00
4836;BME280;66719;51.226;6.902;2023-03-14T09:13:44;98230.22;;;9.95;100.00
4836;BME280;66719;51.226;6.902;2023-03-14T09:16:11;98236.28;;;9.96;100.00
4836;BME280;66719;51.226;6.902;2023-03-14T09:18:37;98226.88;;;9.93;100.00
4836;BME280;66719;51.226;6.902;2023-03-14T09:21:04;98242.53;;;9.93;100.00
4836;BME280;66719;51.226;6.902;2023-03-14T09:23:31;98248.63;;;9.94;100.00
4836;BME280;66719;51.226;6.902;2023-03-14T09:25:59;98255.78;;;9.90;100.00
4836;BME280;66719;51.226;6.902;2023-03-14T09:28:27;98257.22;;;9.80;100.00
4836;BME280;66719;51.226;6.902;2023-03-14T09:30:53;98310.72;;;9.73;100.00
4836;BME280;66719;51.226;6.902;2023-03-14T09:33:21;98329.22;;;9.37;100.00
4836;BME280;66719;51.226;6.902;2023-03-14T09:35:48;98358.38;;;8.94;100.00
4836;BME280;66719;51.226;6.902;2023-03-14T09:38:14;98387.53;;;8.68;100.00
4836;BME280;66719;51.226;6.902;2023-03-14T09:40:42;98375.72;;;8.43;100.00
4836;BME280;66719;51.226;6.902;2023-03-14T09:43:11;98409.53;;;8.26;100.00
4836;BME280;66719;51.226;6.902;2023-03-14T09:45:41;98402.06;;;8.18;100.00
4836;BME280;66719;51.226;6.902;2023-03-14T09:48:15;98413.75;;;8.10;100.00
4836;BME280;66719;51.226;6.902;2023-03-14T09:50:45;98433.88;;;8.06;100.00
4836;BME280;66719;51.226;6.902;2023-03-14T09:53:15;98428.13;;;8.00;100.00
4836;BME280;66719;51.226;6.902;2023-03-14T09:55:47;98449.03;;;7.98;100.00
4836;BME280;66719;51.226;6.902;2023-03-14T09:58:23;98459.44;;;7.98;100.00
4836;BME280;66719;51.226;6.902;2023-03-14T10:00:52;98453.59;;;7.93;100.00
4836;BME280;66719;51.226;6.902;2023-03-14T10:05:46;98469.25;;;7.93;100.00
4836;BME280;66719;51.226;6.902;2023-03-14T10:08:13;98469.31;;;7.91;100.00
4836;BME280;66719;51.226;6.902;2023-03-14T10:10:40;98489.09;;;7.96;100.00
4836;BME280;66719;51.226;6.902;2023-03-14T10:15:39;98493.28;;;8.00;100.00
4836;BME280;66719;51.226;6.902;2023-03-14T10:18:11;98505.44;;;7.99;100.00
4836;BME280;66719;51.226;6.902;2023-03-14T10:20:41;98517.19;;;8.08;100.00
4836;BME280;66719;51.226;6.902;2023-03-14T10:23:25;98542.41;;;8.07;100.00
4836;BME280;66719;51.226;6.902;2023-03-14T10:26:08;98526.94;;;8.04;100.00
4836;BME280;66719;51.226;6.902;2023-03-14T10:28:46;98553.75;;;8.06;100.00
4836;BME280;66719;51.226;6.902;2023-03-14T10:31:14;98557.44;;;8.02;100.00
4836;BME280;66719;51.226;6.902;2023-03-14T10:33:41;98571.22;;;8.04;100.00
4836;BME280;66719;51.226;6.902;2023-03-14T10:36:21;98596.19;;;8.10;100.00
4836;BME280;66719;51.226;6.902;2023-03-14T10:38:49;98585.75;;;8.10;100.00
4836;BME280;66719;51.226;6.902;2023-03-14T10:41:19;98602.34;;;8.07;100.00
4836;BME280;66719;51.226;6.902;2023-03-14T10:43:51;98614.44;;;8.10;100.00
4836;BME280;66719;51.226;6.902;2023-03-14T10:46:20;98620.75;;;8.04;100.00
4836;BME280;66719;51.226;6.902;2023-03-14T10:48:47;98633.75;;;8.04;100.00
4836;BME280;66719;51.226;6.902;2023-03-14T10:53:48;98638.00;;;8.07;100.00
4836;BME280;66719;51.226;6.902;2023-03-14T10:56:21;98651.34;;;7.99;100.00
4836;BME280;66719;51.226;6.902;2023-03-14T10:58:49;98668.94;;;7.94;100.00
4836;BME280;66719;51.226;6.902;2023-03-14T11:07:01;98710.66;;;7.50;100.00
4836;BME280;66719;51.226;6.902;2023-03-14T11:09:48;98729.84;;;7.24;100.00
4836;BME280;66719;51.226;6.902;2023-03-14T11:15:27;98757.19;;;7.13;100.00
4836;BME280;66719;51.226;6.902;2023-03-14T11:21:19;98794.69;;;6.82;100.00
4836;BME280;66719;51.226;6.902;2023-03-14T11:24:03;98779.75;;;6.64;100.00
4836;BME280;66719;51.226;6.902;2023-03-14T11:26:42;98800.59;;;6.62;100.00
4836;BME280;66719;51.226;6.902;2023-03-14T11:32:17;98831.03;;;6.59;100.00
4836;BME280;66719;51.226;6.902;2023-03-14T11:34:52;98826.72;;;6.58;100.00
4836;BME280;66719;51.226;6.902;2023-03-14T11:40:17;98845.53;;;6.66;100.00
4836;BME280;66719;51.226;6.902;2023-03-14T11:42:48;98849.94;;;6.64;100.00
4836;BME280;66719;51.226;6.902;2023-03-14T11:45:20;98871.81;;;6.83;100.00
4836;BME280;66719;51.226;6.902;2023-03-14T11:50:49;98874.78;;;6.72;100.00
4836;BME280;66719;51.226;6.902;2023-03-14T11:55:49;98890.22;;;6.77;100.00
4836;BME280;66719;51.226;6.902;2023-03-14T11:58:20;98893.53;;;6.82;100.00
4836;BME280;66719;51.226;6.902;2023-03-14T12:00:51;98909.13;;;6.82;100.00
4836;BME280;66719;51.226;6.902;2023-03-14T12:06:33;98921.59;;;6.72;100.00
4836;BME280;66719;51.226;6.902;2023-03-14T12:09:03;98929.94;;;6.82;100.00
4836;BME280;66719;51.226;6.902;2023-03-14T12:14:00;98950.56;;;6.88;100.00
4836;BME280;66719;51.226;6.902;2023-03-14T12:16:33;98963.19;;;6.72;100.00
4836;BME280;66719;51.226;6.902;2023-03-14T12:21:56;98987.03;;;6.59;100.00
4836;BME280;66719;51.226;6.902;2023-03-14T12:24:30;99011.41;;;6.55;100.00
4836;BME280;66719;51.226;6.902;2023-03-14T12:27:02;99003.19;;;6.40;100.00
4836;BME280;66719;51.226;6.902;2023-03-14T12:29:29;99036.06;;;6.41;100.00
4836;BME280;66719;51.226;6.902;2023-03-14T12:32:23;99030.75;;;6.46;100.00
4836;BME280;66719;51.226;6.902;2023-03-14T12:34:51;99036.41;;;6.59;100.00
4836;BME280;66719;51.226;6.902;2023-03-14T12:37:33;99046.47;;;6.71;100.00
4836;BME280;66719;51.226;6.902;2023-03-14T12:40:15;99064.97;;;6.90;100.00
4836;BME280;66719;51.226;6.902;2023-03-14T12:42:56;99053.97;;;7.08;100.00
4836;BME280;66719;51.226;6.902;2023-03-14T12:50:53;99085.56;;;7.24;100.00
4836;BME280;66719;51.226;6.902;2023-03-14T12:53:44;99091.88;;;7.17;100.00
4836;BME280;66719;51.226;6.902;2023-03-14T12:56:45;99102.16;;;7.21;100.00
4836;BME280;66719;51.226;6.902;2023-03-14T12:59:35;99113.66;;;7.14;100.00
4836;BME280;66719;51.226;6.902;2023-03-14T13:05:10;99154.69;;;6.75;100.00
4836;BME280;66719;51.226;6.902;2023-03-14T13:10:22;99175.78;;;6.33;100.00
4836;BME280;66719;51.226;6.902;2023-03-14T13:13:26;99179.28;;;6.32;100.00
4836;BME280;66719;51.226;6.902;2023-03-14T13:15:56;99192.31;;;6.31;100.00
4836;BME280;66719;51.226;6.902;2023-03-14T13:18:47;99185.72;;;6.50;100.00
4836;BME280;66719;51.226;6.902;2023-03-14T13:26:41;99210.31;;;6.71;100.00
4836;BME280;66719;51.226;6.902;2023-03-14T13:29:25;99217.19;;;6.72;100.00
4836;BME280;66719;51.226;6.902;2023-03-14T13:31:54;99230.13;;;6.75;100.00
4836;BME280;66719;51.226;6.902;2023-03-14T13:34:21;99232.03;;;6.99;100.00
4836;BME280;66719;51.226;6.902;2023-03-14T13:36:51;99228.78;;;7.21;100.00
4836;BME280;66719;51.226;6.902;2023-03-14T13:39:25;99238.47;;;7.17;100.00
4836;BME280;66719;51.226;6.902;2023-03-14T13:41:54;99259.28;;;6.86;100.00
4836;BME280;66719;51.226;6.902;2023-03-14T13:44:27;99282.22;;;6.72;100.00
4836;BME280;66719;51.226;6.902;2023-03-14T13:46:58;99314.59;;;6.26;100.00
4836;BME280;66719;51.226;6.902;2023-03-14T13:49:25;99313.94;;;5.78;100.00
4836;BME280;66719;51.226;6.902;2023-03-14T13:51:52;99306.50;;;5.61;100.00
4836;BME280;66719;51.226;6.902;2023-03-14T13:54:21;99311.63;;;5.64;100.00
4836;BME280;66719;51.226;6.902;2023-03-14T13:56:48;99307.44;;;5.58;100.00
4836;BME280;66719;51.226;6.902;2023-03-14T13:59:29;99311.81;;;5.55;100.00
4836;BME280;66719;51.226;6.902;2023-03-14T14:01:58;99309.09;;;5.61;100.00
4836;BME280;66719;51.226;6.902;2023-03-14T14:04:26;99304.47;;;5.75;100.00
4836;BME280;66719;51.226;6.902;2023-03-14T14:06:58;99308.66;;;5.82;100.00
4836;BME280;66719;51.226;6.902;2023-03-14T14:09:52;99311.75;;;6.00;100.00
4836;BME280;66719;51.226;6.902;2023-03-14T14:12:41;99322.69;;;6.12;100.00
4836;BME280;66719;51.226;6.902;2023-03-14T14:15:22;99317.91;;;6.31;100.00
4836;BME280;66719;51.226;6.902;2023-03-14T14:18:04;99327.94;;;6.46;100.00